Time;durP1;ratioP1;P1;durP2;ratioP2;P2;SDS_P1;SDS_P2;PMS_P1;PMS_P2;Temp;Humidity;BMP_temperature;BMP_pressure;BME280_temperature;BME280_humidity;BME280_pressure;Samples;Min_cycle;Max_cycle;Signal;HPM_P1;HPM_P2
2023/08/23 00:00:01;;;;;;;17.47;16.37;;;25.40;99.90;;;;;;4906594;29;20490;-88
2023/08/23 00:02:33;;;;;;;16.33;15.53;;;25.40;99.90;;;;;;4909974;29;20490;-85
2023/08/23 00:05:03;;;;;;;17.70;16.70;;;25.30;1.00;;;;;;4906619;29;20461;-85
2023/08/23 00:07:33;;;;;;;17.50;16.70;;;25.30;1.00;;;;;;4907764;29;20488;-84
2023/08/23 00:10:05;;;;;;;17.53;16.73;;;25.20;1.00;;;;;;4905825;29;20478;-86
2023/08/23 00:12:36;;;;;;;17.13;16.30;;;25.20;1.00;;;;;;4907751;29;20538;-85
2023/08/23 00:15:11;;;;;;;17.10;16.33;;;25.20;1.00;;;;;;4920852;29;20466;-85
2023/08/23 00:17:44;;;;;;;16.80;16.20;;;25.20;1.00;;;;;;4906570;29;20453;-86
2023/08/23 00:20:13;;;;;;;18.10;17.10;;;25.20;1.00;;;;;;4902485;29;20871;-88
2023/08/23 00:22:42;;;;;;;17.20;16.30;;;25.10;1.00;;;;;;4905134;29;20529;-84
2023/08/23 00:25:11;;;;;;;16.60;15.87;;;25.10;1.00;;;;;;4905323;29;20473;-86
2023/08/23 00:27:43;;;;;;;17.17;16.17;;;25.00;1.00;;;;;;4905224;29;20510;-87
2023/08/23 00:30:15;;;;;;;17.93;16.90;;;25.10;1.00;;;;;;4904367;29;20570;-84
2023/08/23 00:32:45;;;;;;;17.00;16.30;;;25.10;1.00;;;;;;4906147;29;20501;-85
2023/08/23 00:35:16;;;;;;;17.77;16.87;;;25.00;1.00;;;;;;4906709;29;20457;-86
2023/08/23 00:37:46;;;;;;;17.30;16.60;;;25.00;1.00;;;;;;4906013;29;20957;-85
2023/08/23 00:40:15;;;;;;;17.70;16.80;;;24.90;1.00;;;;;;4907028;29;20474;-84
2023/08/23 00:42:46;;;;;;;17.00;16.27;;;24.90;1.00;;;;;;4911048;29;20490;-87
2023/08/23 00:45:17;;;;;;;17.63;16.57;;;24.90;1.00;;;;;;4906462;29;20454;-85
2023/08/23 00:47:54;;;;;;;17.40;16.60;;;25.00;1.00;;;;;;4903483;29;20473;-87
2023/08/23 00:50:28;;;;;;;18.17;17.33;;;25.00;1.00;;;;;;4905050;29;20446;-86
2023/08/23 00:52:56;;;;;;;18.90;17.70;;;25.00;1.00;;;;;;4905764;29;20451;-85
2023/08/23 00:55:25;;;;;;;17.10;16.30;;;25.00;1.00;;;;;;4904264;29;20462;-85
2023/08/23 00:58:01;;;;;;;16.93;16.33;;;24.90;1.00;;;;;;4906543;29;20465;-87
2023/08/23 01:00:34;;;;;;;17.10;16.40;;;25.00;1.00;;;;;;4904539;29;20842;-85
2023/08/23 01:03:05;;;;;;;16.93;16.23;;;24.90;1.00;;;;;;4906158;29;20505;-85
2023/08/23 01:05:46;;;;;;;17.63;16.70;;;24.90;1.00;;;;;;4906881;29;20554;-85
2023/08/23 01:08:28;;;;;;;17.07;16.37;;;24.80;1.00;;;;;;4902789;29;20465;-85
2023/08/23 01:11:03;;;;;;;16.67;15.90;;;24.70;1.00;;;;;;4905011;29;20453;-84
2023/08/23 01:13:40;;;;;;;18.00;17.23;;;24.70;1.00;;;;;;4908783;29;20445;-85
2023/08/23 01:16:11;;;;;;;17.70;16.90;;;24.60;1.00;;;;;;4906159;29;20472;-87
2023/08/23 01:18:50;;;;;;;16.60;15.93;;;24.60;1.00;;;;;;4908528;29;20683;-86
2023/08/23 01:21:26;;;;;;;17.80;17.00;;;24.50;1.00;;;;;;4904794;29;20486;-85
2023/08/23 01:23:56;;;;;;;17.93;17.07;;;24.50;1.00;;;;;;4905127;29;20486;-85
2023/08/23 01:26:28;;;;;;;17.67;16.90;;;24.50;1.00;;;;;;4909664;29;20455;-85
2023/08/23 01:28:59;;;;;;;17.67;16.80;;;24.50;1.00;;;;;;4906071;29;20983;-85
2023/08/23 01:31:41;;;;;;;16.97;16.17;;;24.50;1.00;;;;;;4905896;29;20541;-85
2023/08/23 01:34:16;;;;;;;17.40;16.63;;;24.50;1.00;;;;;;4910190;29;20473;-85
2023/08/23 01:36:46;;;;;;;16.87;16.10;;;24.40;1.00;;;;;;4908245;29;20557;-85
2023/08/23 01:39:18;;;;;;;17.47;16.67;;;24.40;1.00;;;;;;4909195;29;20679;-86
2023/08/23 01:41:53;;;;;;;16.80;16.20;;;24.40;1.00;;;;;;4905549;29;20482;-85
2023/08/23 01:44:28;;;;;;;16.90;16.20;;;24.40;1.00;;;;;;4904825;29;20553;-85
2023/08/23 01:46:57;;;;;;;17.43;16.60;;;24.50;1.00;;;;;;4904376;29;20545;-84
2023/08/23 01:49:30;;;;;;;18.00;17.20;;;24.40;1.00;;;;;;4902366;29;20939;-85
2023/08/23 01:52:02;;;;;;;18.47;17.13;;;24.40;1.00;;;;;;4908405;29;20448;-85
2023/08/23 01:54:35;;;;;;;18.57;17.57;;;24.40;1.00;;;;;;4905422;29;20816;-85
2023/08/23 01:57:06;;;;;;;17.73;16.80;;;24.40;1.00;;;;;;4905368;29;20457;-84
2023/08/23 01:59:40;;;;;;;17.90;17.00;;;24.30;1.00;;;;;;4908210;29;20478;-84
2023/08/23 02:02:11;;;;;;;17.73;16.93;;;24.30;1.00;;;;;;4907904;29;20477;-85
2023/08/23 02:04:41;;;;;;;18.03;17.03;;;24.30;1.00;;;;;;4905664;29;20458;-86
2023/08/23 02:07:12;;;;;;;17.00;16.03;;;24.20;1.00;;;;;;4904496;29;20960;-85
2023/08/23 02:09:45;;;;;;;17.83;17.03;;;24.20;1.00;;;;;;4908683;29;20564;-84
2023/08/23 02:12:13;;;;;;;17.50;16.70;;;24.20;1.00;;;;;;4906224;29;20469;-86
2023/08/23 02:14:44;;;;;;;16.93;16.30;;;24.20;1.00;;;;;;4906947;29;20476;-84
2023/08/23 02:17:15;;;;;;;16.90;16.10;;;24.10;1.00;;;;;;4907135;29;20517;-86
2023/08/23 02:19:43;;;;;;;17.43;16.40;;;24.20;1.00;;;;;;4903219;29;20486;-85
2023/08/23 02:22:18;;;;;;;17.17;16.47;;;24.10;1.00;;;;;;4905690;29;20478;-86
2023/08/23 02:24:48;;;;;;;17.70;16.70;;;24.10;1.00;;;;;;4907656;29;20458;-85
2023/08/23 02:27:19;;;;;;;17.33;16.53;;;24.10;1.00;;;;;;4907808;29;20554;-85
2023/08/23 02:29:50;;;;;;;17.40;16.70;;;24.00;1.00;;;;;;4919635;29;20514;-86
2023/08/23 02:32:19;;;;;;;17.63;16.77;;;24.00;1.00;;;;;;4908196;29;20461;-84
2023/08/23 02:34:53;;;;;;;17.80;17.07;;;24.00;1.00;;;;;;4904104;29;20549;-85
2023/08/23 02:37:23;;;;;;;18.50;17.70;;;24.00;1.00;;;;;;4904010;29;20472;-84
2023/08/23 02:40:04;;;;;;;17.20;16.40;;;24.00;1.00;;;;;;4906883;29;20470;-85
2023/08/23 02:42:38;;;;;;;16.80;16.20;;;23.90;1.00;;;;;;4902400;29;20489;-85
2023/08/23 02:45:08;;;;;;;17.13;16.43;;;23.90;1.00;;;;;;4902555;29;20494;-87
2023/08/23 02:47:44;;;;;;;16.90;16.20;;;23.90;1.00;;;;;;4904538;29;20465;-87
2023/08/23 02:50:15;;;;;;;17.90;17.00;;;23.90;1.00;;;;;;4905920;29;20492;-89
2023/08/23 02:52:46;;;;;;;17.33;16.63;;;23.90;1.00;;;;;;4903277;29;20490;-85
2023/08/23 02:55:18;;;;;;;17.13;16.40;;;23.80;1.00;;;;;;4904758;29;20462;-86
2023/08/23 02:57:53;;;;;;;16.50;15.80;;;23.80;1.00;;;;;;4904396;29;20881;-87
2023/08/23 03:00:27;;;;;;;17.53;16.63;;;23.90;1.00;;;;;;4901429;29;21234;-86
2023/08/23 03:02:56;;;;;;;17.50;16.73;;;23.90;1.00;;;;;;4907637;29;21029;-85
2023/08/23 03:05:28;;;;;;;18.20;17.40;;;23.90;1.00;;;;;;4902185;29;20470;-85
2023/08/23 03:07:57;;;;;;;16.97;16.30;;;23.90;1.00;;;;;;4903190;29;20840;-87
2023/08/23 03:10:30;;;;;;;17.87;17.07;;;23.90;1.00;;;;;;4898686;29;20499;-85
2023/08/23 03:12:58;;;;;;;17.50;16.70;;;23.80;1.00;;;;;;4903884;29;20618;-84
2023/08/23 03:15:31;;;;;;;18.07;17.37;;;23.70;1.00;;;;;;4903099;29;20468;-86
2023/08/23 03:18:01;;;;;;;18.10;17.00;;;23.70;1.00;;;;;;4901285;29;20462;-84
2023/08/23 03:20:33;;;;;;;17.57;16.77;;;23.70;1.00;;;;;;4905595;29;20449;-87
2023/08/23 03:23:05;;;;;;;18.10;17.30;;;23.70;1.00;;;;;;4903696;29;20481;-86
2023/08/23 03:25:36;;;;;;;18.13;17.20;;;23.70;1.00;;;;;;4899287;29;20464;-86
2023/08/23 03:28:11;;;;;;;17.70;16.90;;;23.60;1.00;;;;;;4904886;29;20465;-84
2023/08/23 03:30:39;;;;;;;18.03;17.23;;;23.60;1.00;;;;;;4905259;29;20458;-85
2023/08/23 03:33:08;;;;;;;17.83;17.03;;;23.60;1.00;;;;;;4919850;29;20455;-85
2023/08/23 03:35:41;;;;;;;18.20;17.50;;;23.70;1.00;;;;;;4904990;29;20455;-86
2023/08/23 03:38:10;;;;;;;18.10;17.20;;;23.60;1.00;;;;;;4907969;29;20474;-86
2023/08/23 03:40:48;;;;;;;18.57;17.73;;;23.60;1.00;;;;;;4908740;29;20493;-86
2023/08/23 03:43:29;;;;;;;18.40;17.50;;;23.60;1.00;;;;;;4905606;29;20497;-86
2023/08/23 03:46:01;;;;;;;17.60;16.90;;;23.60;1.00;;;;;;4905533;29;20494;-88
2023/08/23 03:48:31;;;;;;;17.40;16.70;;;23.60;1.00;;;;;;4905919;29;20482;-85
2023/08/23 03:51:12;;;;;;;18.50;17.40;;;23.60;1.00;;;;;;4907729;29;20508;-87
2023/08/23 03:53:43;;;;;;;17.13;16.43;;;23.50;1.00;;;;;;4910233;29;20461;-85
2023/08/23 03:56:20;;;;;;;17.63;16.93;;;23.40;13.30;;;;;;4906615;29;20458;-85
2023/08/23 03:59:00;;;;;;;19.03;18.00;;;23.40;48.50;;;;;;4908290;29;20513;-87
2023/08/23 04:01:31;;;;;;;18.40;17.60;;;23.40;43.00;;;;;;4904566;29;20466;-85
2023/08/23 04:04:00;;;;;;;17.63;16.90;;;23.30;45.10;;;;;;4906892;29;20486;-85
2023/08/23 04:06:29;;;;;;;18.20;17.50;;;23.30;65.10;;;;;;4907300;29;20486;-86
2023/08/23 04:09:00;;;;;;;18.00;17.30;;;23.30;92.90;;;;;;4906562;29;20478;-85
2023/08/23 04:11:34;;;;;;;18.57;17.80;;;23.30;79.00;;;;;;4911062;29;20481;-85
2023/08/23 04:14:08;;;;;;;18.87;17.80;;;23.30;63.00;;;;;;4911666;29;20454;-86
2023/08/23 04:16:38;;;;;;;18.43;17.70;;;23.20;99.90;;;;;;4906765;29;20464;-85
2023/08/23 04:19:10;;;;;;;19.13;18.33;;;23.10;99.90;;;;;;4906750;29;20481;-84
2023/08/23 04:21:41;;;;;;;19.97;18.67;;;23.10;99.90;;;;;;4905410;29;20486;-87
2023/08/23 04:24:10;;;;;;;18.93;18.00;;;23.20;99.90;;;;;;4909361;29;20481;-86
2023/08/23 04:26:43;;;;;;;19.83;18.80;;;23.20;88.70;;;;;;4904482;29;20454;-85
2023/08/23 04:29:17;;;;;;;18.93;18.03;;;23.20;95.80;;;;;;4907565;29;20478;-86
2023/08/23 04:31:56;;;;;;;19.87;18.97;;;23.20;82.30;;;;;;4906625;29;20510;-86
2023/08/23 04:34:29;;;;;;;19.63;18.63;;;23.20;95.60;;;;;;4904689;29;20457;-87
2023/08/23 04:37:07;;;;;;;19.70;18.63;;;23.20;48.60;;;;;;4906284;29;20832;-86
2023/08/23 04:39:39;;;;;;;19.90;18.70;;;23.20;48.90;;;;;;4905122;29;21007;-86
2023/08/23 04:42:14;;;;;;;18.47;17.57;;;23.20;44.00;;;;;;4922984;29;20545;-85
2023/08/23 04:44:48;;;;;;;19.33;18.50;;;23.20;47.90;;;;;;4908033;29;20477;-85
2023/08/23 04:47:16;;;;;;;20.00;19.00;;;23.20;61.30;;;;;;4909214;29;20485;-86
2023/08/23 04:49:53;;;;;;;18.80;17.70;;;23.20;46.40;;;;;;4909761;29;20477;-85
2023/08/23 04:52:27;;;;;;;20.03;19.00;;;23.20;35.60;;;;;;4924451;29;20819;-85
2023/08/23 04:55:00;;;;;;;18.30;17.50;;;23.20;59.20;;;;;;4905611;28;20482;-86
2023/08/23 04:57:32;;;;;;;17.90;16.83;;;23.20;44.10;;;;;;4906463;29;20967;-87
2023/08/23 05:00:13;;;;;;;18.33;17.60;;;23.20;59.00;;;;;;4906976;29;20565;-86
2023/08/23 05:02:45;;;;;;;19.60;18.60;;;23.30;48.30;;;;;;4906713;29;20461;-85
2023/08/23 05:05:20;;;;;;;19.63;18.53;;;23.30;29.50;;;;;;4906553;29;20474;-86
2023/08/23 05:07:53;;;;;;;20.03;19.03;;;23.30;31.40;;;;;;4905090;29;20528;-85
2023/08/23 05:10:24;;;;;;;19.30;18.47;;;23.20;43.00;;;;;;4908597;29;20682;-84
2023/08/23 05:13:08;;;;;;;18.50;17.67;;;23.30;99.90;;;;;;4907719;29;20824;-84
2023/08/23 05:15:54;;;;;;;18.87;17.87;;;23.30;99.90;;;;;;4907794;29;20458;-85
2023/08/23 05:18:25;;;;;;;19.03;18.23;;;23.30;99.90;;;;;;4913782;29;20481;-85
2023/08/23 05:20:55;;;;;;;19.80;18.67;;;23.30;99.90;;;;;;4906740;29;20470;-86
2023/08/23 05:23:26;;;;;;;19.87;18.97;;;23.30;99.90;;;;;;4909488;29;20501;-86
2023/08/23 05:25:55;;;;;;;19.70;18.53;;;23.30;99.90;;;;;;4903127;29;20466;-85
2023/08/23 05:28:26;;;;;;;19.80;18.70;;;23.30;99.90;;;;;;4908008;29;20475;-85
2023/08/23 05:31:02;;;;;;;19.20;18.40;;;23.30;99.90;;;;;;4908604;29;20461;-87
2023/08/23 05:33:31;;;;;;;20.30;19.20;;;23.30;99.90;;;;;;4920453;29;20465;-85
2023/08/23 05:36:00;;;;;;;20.57;19.37;;;23.30;99.90;;;;;;4908699;29;20485;-85
2023/08/23 05:38:33;;;;;;;20.67;19.17;;;23.30;99.90;;;;;;4903465;29;20696;-86
2023/08/23 05:41:03;;;;;;;20.00;18.73;;;23.40;99.90;;;;;;4904360;29;20459;-86
2023/08/23 05:43:40;;;;;;;21.23;19.43;;;23.40;66.40;;;;;;4920828;29;20557;-87
2023/08/23 05:46:13;;;;;;;20.30;19.20;;;23.40;29.30;;;;;;4908458;29;20446;-87
2023/08/23 05:48:51;;;;;;;19.87;18.77;;;23.40;26.90;;;;;;4902411;29;20897;-86
2023/08/23 05:51:19;;;;;;;21.13;20.03;;;23.40;9.60;;;;;;4903153;29;20464;-85
2023/08/23 05:53:47;;;;;;;20.63;19.57;;;23.50;27.40;;;;;;4919722;29;20466;-87
2023/08/23 05:56:18;;;;;;;20.33;19.33;;;23.50;2.90;;;;;;4907083;29;20459;-85
2023/08/23 05:58:51;;;;;;;20.00;18.90;;;23.50;1.00;;;;;;4904839;29;20478;-87
2023/08/23 06:01:32;;;;;;;18.60;17.33;;;23.50;1.00;;;;;;4903534;29;20465;-86
2023/08/23 06:04:03;;;;;;;18.60;17.73;;;23.60;1.00;;;;;;4901879;29;20739;-85
2023/08/23 06:06:37;;;;;;;19.07;18.00;;;23.60;1.00;;;;;;4904760;29;20973;-85
2023/08/23 06:09:14;;;;;;;18.63;17.37;;;23.70;1.00;;;;;;4903979;29;20494;-85
2023/08/23 06:11:46;;;;;;;18.83;17.77;;;23.80;1.00;;;;;;4904041;29;20881;-85
2023/08/23 06:14:21;;;;;;;18.80;17.80;;;24.00;1.00;;;;;;4902616;29;20463;-86
2023/08/23 06:16:50;;;;;;;18.87;17.83;;;24.20;1.00;;;;;;4902340;29;20458;-85
2023/08/23 06:19:19;;;;;;;19.10;18.10;;;24.30;1.00;;;;;;4902904;29;20482;-86
2023/08/23 06:21:55;;;;;;;17.53;16.83;;;24.50;1.00;;;;;;4904275;29;20457;-86
2023/08/23 06:24:33;;;;;;;18.20;17.30;;;24.70;1.00;;;;;;4905876;29;20485;-87
2023/08/23 06:27:05;;;;;;;18.30;17.47;;;25.00;1.00;;;;;;4902777;29;20804;-87
2023/08/23 06:29:37;;;;;;;19.20;18.00;;;25.10;1.00;;;;;;4902981;29;20483;-87
2023/08/23 06:32:09;;;;;;;18.43;17.33;;;25.20;1.00;;;;;;4901555;29;20663;-88
2023/08/23 06:34:45;;;;;;;18.67;17.43;;;25.50;1.00;;;;;;4916633;29;20465;-86
2023/08/23 06:37:16;;;;;;;18.80;17.83;;;25.60;1.00;;;;;;4902995;29;20455;-86
2023/08/23 06:39:47;;;;;;;18.90;18.00;;;25.70;99.90;;;;;;4904864;29;20485;-85
2023/08/23 06:42:45;;;;;;;18.77;17.83;;;25.80;99.90;;;;;;4902953;29;20438;-86
2023/08/23 06:45:16;;;;;;;17.50;16.70;;;26.00;99.90;;;;;;4904163;29;20887;-86
2023/08/23 06:47:48;;;;;;;19.10;18.00;;;26.00;99.90;;;;;;4904818;29;20451;-85
2023/08/23 06:50:21;;;;;;;18.50;17.50;;;26.10;99.90;;;;;;4904055;29;20484;-87
2023/08/23 06:52:50;;;;;;;18.47;17.50;;;26.20;99.90;;;;;;4903396;29;20541;-85
2023/08/23 06:55:21;;;;;;;18.10;17.20;;;26.40;99.90;;;;;;4918225;29;20517;-85
2023/08/23 06:57:56;;;;;;;17.43;16.60;;;26.60;99.90;;;;;;4905059;29;20467;-87
2023/08/23 07:00:28;;;;;;;17.60;16.60;;;26.70;99.90;;;;;;4908893;29;20569;-86
2023/08/23 07:02:57;;;;;;;16.93;16.20;;;26.80;99.90;;;;;;4904610;29;20465;-85
2023/08/23 07:05:28;;;;;;;16.70;15.90;;;26.90;99.90;;;;;;4905469;29;21041;-85
2023/08/23 07:07:57;;;;;;;16.03;15.20;;;27.00;99.90;;;;;;4904875;29;20937;-86
2023/08/23 07:10:28;;;;;;;17.07;16.23;;;27.10;99.90;;;;;;4903625;29;20830;-85
2023/08/23 07:12:57;;;;;;;15.90;15.23;;;27.10;99.90;;;;;;4903662;29;20959;-86
2023/08/23 07:15:35;;;;;;;16.17;15.37;;;27.20;99.90;;;;;;4909378;29;20461;-85
2023/08/23 07:18:07;;;;;;;15.37;14.57;;;27.20;99.90;;;;;;4906119;29;20464;-84
2023/08/23 07:20:35;;;;;;;15.90;15.13;;;27.40;99.90;;;;;;4904329;29;21012;-85
2023/08/23 07:23:04;;;;;;;15.40;14.50;;;27.40;99.90;;;;;;4902860;29;20460;-86
2023/08/23 07:25:36;;;;;;;15.10;14.43;;;27.30;99.90;;;;;;4904950;29;20518;-85
2023/08/23 07:28:10;;;;;;;14.90;14.30;;;27.40;99.90;;;;;;4906802;29;20450;-86
2023/08/23 07:30:47;;;;;;;16.63;15.83;;;27.40;99.90;;;;;;4904556;29;20447;-86
2023/08/23 07:33:15;;;;;;;16.13;15.23;;;27.40;99.90;;;;;;4918507;29;21157;-87
2023/08/23 07:35:55;;;;;;;17.57;16.67;;;27.40;99.90;;;;;;4904247;29;20945;-86
2023/08/23 07:38:27;;;;;;;16.97;15.97;;;27.50;99.90;;;;;;4919191;29;20988;-86
2023/08/23 07:41:01;;;;;;;16.97;16.07;;;27.40;99.90;;;;;;4907385;29;20976;-90
2023/08/23 07:43:30;;;;;;;17.73;16.10;;;27.20;99.90;;;;;;4905552;29;20549;-86
2023/08/23 07:46:03;;;;;;;17.77;16.43;;;27.40;99.90;;;;;;4905447;29;20482;-85
2023/08/23 07:48:32;;;;;;;17.37;16.30;;;27.40;99.90;;;;;;4904396;29;20469;-85
2023/08/23 07:51:01;;;;;;;17.17;16.37;;;27.50;99.90;;;;;;4919634;29;20462;-86
2023/08/23 07:53:34;;;;;;;17.27;16.20;;;27.60;99.90;;;;;;4905178;29;20553;-85
2023/08/23 07:56:07;;;;;;;17.40;16.60;;;27.50;99.90;;;;;;4903354;29;20476;-85
2023/08/23 07:58:40;;;;;;;17.53;16.43;;;27.30;99.90;;;;;;4903541;29;21034;-86
2023/08/23 08:01:15;;;;;;;17.20;16.40;;;27.30;99.90;;;;;;4905061;29;20835;-85
2023/08/23 08:03:51;;;;;;;17.00;16.20;;;27.40;99.90;;;;;;4905260;29;20446;-87
2023/08/23 08:06:20;;;;;;;18.10;16.90;;;27.50;99.90;;;;;;4901942;29;21045;-86
2023/08/23 08:08:48;;;;;;;18.40;17.07;;;27.70;99.90;;;;;;4902229;29;20484;-87
2023/08/23 08:11:18;;;;;;;18.53;17.33;;;27.90;99.90;;;;;;4904372;29;20484;-85
2023/08/23 08:13:53;;;;;;;18.03;17.03;;;27.90;99.90;;;;;;4903470;29;21063;-87
2023/08/23 08:16:23;;;;;;;17.33;16.63;;;27.90;99.90;;;;;;4911027;29;20456;-85
2023/08/23 08:18:52;;;;;;;17.97;17.17;;;27.80;99.90;;;;;;4906512;29;20562;-86
2023/08/23 08:21:29;;;;;;;18.30;17.30;;;27.80;99.90;;;;;;4907109;29;20523;-86
2023/08/23 08:23:58;;;;;;;18.30;17.33;;;27.70;99.90;;;;;;4907047;29;20536;-86
2023/08/23 08:26:32;;;;;;;18.50;17.40;;;27.80;99.90;;;;;;4923515;29;20540;-85
2023/08/23 08:29:01;;;;;;;18.00;17.13;;;28.00;99.90;;;;;;4908546;29;20470;-89
2023/08/23 08:31:36;;;;;;;17.53;16.57;;;28.10;99.90;;;;;;4923060;29;20459;-86
2023/08/23 08:34:14;;;;;;;17.63;16.63;;;28.20;99.90;;;;;;4904273;29;20455;-87
2023/08/23 08:36:45;;;;;;;18.13;16.67;;;28.10;99.90;;;;;;4908934;29;20469;-87
2023/08/23 08:39:19;;;;;;;17.23;16.33;;;28.20;99.90;;;;;;4924285;29;20573;-87
2023/08/23 08:41:49;;;;;;;16.77;15.93;;;28.30;99.90;;;;;;4920143;29;20566;-85
2023/08/23 08:44:23;;;;;;;16.97;16.07;;;28.40;99.90;;;;;;4906591;29;20490;-86
2023/08/23 08:46:55;;;;;;;17.40;16.10;;;28.30;99.90;;;;;;4905858;29;21100;-87
2023/08/23 08:49:23;;;;;;;17.27;16.47;;;28.40;99.90;;;;;;4907952;29;21099;-91
2023/08/23 08:52:04;;;;;;;17.67;16.57;;;28.50;99.90;;;;;;4907411;29;20939;-85
2023/08/23 08:54:34;;;;;;;18.27;17.13;;;28.60;99.90;;;;;;4905059;29;20464;-88
2023/08/23 08:57:06;;;;;;;17.13;16.20;;;28.60;99.90;;;;;;4904733;29;20462;-86
2023/08/23 08:59:40;;;;;;;17.87;16.73;;;28.60;99.90;;;;;;4907179;29;21031;-86
2023/08/23 09:02:17;;;;;;;18.70;17.60;;;28.60;99.90;;;;;;4905714;29;20443;-86
2023/08/23 09:04:55;;;;;;;17.50;16.53;;;28.60;99.90;;;;;;4905707;29;20490;-89
2023/08/23 09:07:27;;;;;;;17.10;16.30;;;28.70;99.90;;;;;;4904100;29;20589;-88
2023/08/23 09:09:56;;;;;;;17.50;16.40;;;28.70;99.90;;;;;;4904833;29;20479;-87
2023/08/23 09:12:33;;;;;;;18.57;17.47;;;28.60;99.90;;;;;;4921963;29;21049;-86
2023/08/23 09:15:05;;;;;;;18.00;16.87;;;28.60;99.90;;;;;;4903289;29;20469;-86
2023/08/23 09:17:36;;;;;;;17.50;16.50;;;28.60;99.90;;;;;;4904893;29;20529;-86
2023/08/23 09:20:10;;;;;;;18.23;17.10;;;28.70;99.90;;;;;;4903726;29;20473;-86
2023/08/23 09:22:44;;;;;;;17.40;16.40;;;28.70;99.90;;;;;;4904553;29;20462;-87
2023/08/23 09:25:20;;;;;;;17.93;16.97;;;28.70;99.90;;;;;;4904330;29;20874;-87
2023/08/23 09:27:52;;;;;;;18.30;17.30;;;28.60;99.90;;;;;;4921583;29;20497;-85
2023/08/23 09:30:26;;;;;;;17.10;16.20;;;28.60;99.90;;;;;;4910536;29;20489;-85
2023/08/23 09:33:02;;;;;;;17.43;16.63;;;28.70;99.90;;;;;;4905676;29;20449;-86
2023/08/23 09:35:31;;;;;;;17.27;16.50;;;28.70;99.90;;;;;;4906609;29;20454;-86
2023/08/23 09:38:06;;;;;;;17.53;16.63;;;28.80;99.90;;;;;;4906474;29;20534;-89
2023/08/23 09:40:42;;;;;;;17.30;16.40;;;28.80;99.90;;;;;;4906606;29;20541;-87
2023/08/23 09:43:13;;;;;;;18.20;17.20;;;28.90;99.90;;;;;;4904199;29;20458;-88
2023/08/23 09:45:45;;;;;;;18.23;17.13;;;28.80;99.90;;;;;;4905521;29;20465;-86
2023/08/23 09:48:17;;;;;;;18.03;17.10;;;28.90;99.90;;;;;;4906868;29;20453;-86
2023/08/23 09:50:52;;;;;;;17.60;16.90;;;29.00;99.90;;;;;;4904853;29;20435;-87
2023/08/23 09:53:26;;;;;;;17.60;16.70;;;29.10;99.90;;;;;;4910060;29;20980;-87
2023/08/23 09:55:59;;;;;;;17.43;16.70;;;29.20;99.90;;;;;;4904651;29;20503;-85
2023/08/23 09:58:33;;;;;;;17.60;16.80;;;29.40;99.90;;;;;;4907278;29;20569;-86
2023/08/23 10:01:03;;;;;;;17.03;16.20;;;29.50;99.90;;;;;;4906191;29;20473;-87
2023/08/23 10:03:35;;;;;;;16.77;15.97;;;29.50;99.90;;;;;;4905526;29;20542;-87
2023/08/23 10:06:08;;;;;;;16.43;15.73;;;29.50;99.90;;;;;;4908564;29;20541;-85
2023/08/23 10:08:39;;;;;;;16.30;15.60;;;29.50;99.90;;;;;;4907372;29;20529;-85
2023/08/23 10:11:20;;;;;;;16.50;15.77;;;29.40;99.90;;;;;;4904367;29;20458;-86
2023/08/23 10:13:55;;;;;;;16.43;15.53;;;29.30;99.90;;;;;;4904392;29;20852;-86
2023/08/23 10:16:29;;;;;;;16.07;15.47;;;29.20;99.90;;;;;;4904238;29;20876;-85
2023/08/23 10:19:07;;;;;;;16.40;15.80;;;29.30;99.90;;;;;;4905289;29;20478;-86
2023/08/23 10:21:38;;;;;;;17.50;16.50;;;29.20;99.90;;;;;;4904116;29;20450;-88
2023/08/23 10:24:10;;;;;;;17.23;16.13;;;29.00;99.90;;;;;;4903887;29;20888;-84
2023/08/23 10:26:54;;;;;;;15.93;15.23;;;29.00;99.90;;;;;;4905570;29;20496;-87
2023/08/23 10:29:29;;;;;;;17.67;16.47;;;29.10;99.90;;;;;;4903096;29;20481;-85
2023/08/23 10:32:05;;;;;;;16.70;16.00;;;29.20;99.90;;;;;;4906834;29;20553;-86
2023/08/23 10:34:40;;;;;;;16.40;15.70;;;29.20;99.90;;;;;;4904940;29;20942;-88
2023/08/23 10:37:16;;;;;;;15.60;14.90;;;29.30;99.90;;;;;;4905712;29;20450;-86
2023/08/23 10:39:52;;;;;;;16.70;16.00;;;29.40;99.90;;;;;;4903018;29;20574;-87
2023/08/23 10:42:25;;;;;;;16.20;15.37;;;29.50;99.90;;;;;;4908690;29;20458;-89
2023/08/23 10:45:00;;;;;;;15.90;15.20;;;29.50;99.90;;;;;;4909280;29;21057;-86
2023/08/23 10:47:39;;;;;;;15.83;15.23;;;29.60;99.90;;;;;;4917377;29;20474;-86
2023/08/23 10:50:13;;;;;;;16.00;15.30;;;29.60;99.90;;;;;;4905068;29;20501;-87
2023/08/23 10:52:44;;;;;;;16.00;15.40;;;29.60;99.90;;;;;;4903330;29;20462;-85
2023/08/23 10:55:17;;;;;;;15.63;14.80;;;29.60;99.90;;;;;;4903418;29;20900;-86
2023/08/23 10:57:45;;;;;;;16.43;15.73;;;29.50;99.90;;;;;;4905940;29;20446;-88
2023/08/23 11:00:17;;;;;;;15.80;15.13;;;29.60;99.90;;;;;;4908399;29;20908;-86
2023/08/23 11:02:53;;;;;;;15.90;15.30;;;29.60;99.90;;;;;;4907800;29;20458;-86
2023/08/23 11:05:24;;;;;;;16.03;15.40;;;29.70;99.90;;;;;;4903799;29;20557;-86
2023/08/23 11:07:57;;;;;;;15.57;14.97;;;29.70;99.90;;;;;;4901464;29;20843;-85
2023/08/23 11:10:27;;;;;;;17.27;16.00;;;29.70;99.90;;;;;;4908074;29;20474;-86
2023/08/23 11:12:58;;;;;;;16.47;15.67;;;29.70;99.90;;;;;;4909573;29;20454;-86
2023/08/23 11:15:27;;;;;;;15.60;15.00;;;29.80;99.90;;;;;;4919382;29;20971;-87
2023/08/23 11:17:59;;;;;;;16.43;15.70;;;29.70;99.90;;;;;;4911079;29;20665;-85
2023/08/23 11:20:37;;;;;;;17.03;16.03;;;29.80;99.90;;;;;;4909261;29;20540;-86
2023/08/23 11:23:07;;;;;;;16.30;15.60;;;29.90;99.90;;;;;;4905222;29;20477;-87
2023/08/23 11:25:37;;;;;;;15.80;15.10;;;29.90;99.90;;;;;;4908923;29;20469;-86
2023/08/23 11:28:07;;;;;;;16.60;15.60;;;30.00;99.90;;;;;;4905942;29;20489;-86
2023/08/23 11:30:39;;;;;;;15.67;15.00;;;30.10;99.90;;;;;;4905865;29;21071;-86
2023/08/23 11:33:09;;;;;;;16.73;15.93;;;30.10;99.90;;;;;;4905502;29;20548;-86
2023/08/23 11:35:43;;;;;;;17.43;16.33;;;30.10;99.90;;;;;;4905692;29;20502;-86
2023/08/23 11:38:20;;;;;;;16.63;15.90;;;30.00;99.90;;;;;;4908001;29;20862;-86
2023/08/23 11:40:54;;;;;;;15.87;15.20;;;30.10;99.90;;;;;;4903497;29;20459;-87
2023/08/23 11:43:24;;;;;;;16.17;15.47;;;30.10;99.90;;;;;;4919583;29;20465;-86
2023/08/23 11:45:53;;;;;;;17.03;16.17;;;30.00;99.90;;;;;;4904711;29;20465;-87
2023/08/23 11:48:28;;;;;;;16.30;15.60;;;30.10;99.90;;;;;;4904746;29;20485;-86
2023/08/23 11:51:01;;;;;;;15.20;14.70;;;30.00;99.90;;;;;;4906080;29;20482;-87
2023/08/23 11:53:31;;;;;;;16.30;15.70;;;30.10;99.90;;;;;;4908701;29;20815;-88
2023/08/23 11:56:06;;;;;;;15.67;14.97;;;30.10;99.90;;;;;;4909696;29;20509;-87
2023/08/23 11:58:36;;;;;;;16.63;15.77;;;30.20;99.90;;;;;;4907834;29;20835;-86
2023/08/23 12:01:05;;;;;;;16.93;16.13;;;30.30;99.90;;;;;;4906021;29;20461;-86
2023/08/23 12:03:36;;;;;;;16.10;15.20;;;30.30;99.90;;;;;;4904674;29;20486;-85
2023/08/23 12:06:08;;;;;;;16.57;15.63;;;30.30;99.90;;;;;;4905827;29;20528;-87
2023/08/23 12:08:40;;;;;;;16.53;15.33;;;30.40;99.90;;;;;;4906370;29;20501;-87
2023/08/23 12:11:14;;;;;;;16.40;15.70;;;30.40;99.90;;;;;;4906835;29;20466;-86
2023/08/23 12:13:43;;;;;;;16.97;16.27;;;30.40;99.90;;;;;;4908661;29;20843;-86
2023/08/23 12:16:15;;;;;;;16.27;15.63;;;30.50;99.90;;;;;;4922760;29;20478;-86
2023/08/23 12:18:49;;;;;;;15.97;15.20;;;30.50;99.90;;;;;;4908740;29;20564;-86
2023/08/23 12:21:19;;;;;;;17.03;16.20;;;30.50;99.90;;;;;;4905644;29;20465;-88
2023/08/23 12:23:47;;;;;;;16.77;16.00;;;30.40;99.90;;;;;;4906920;29;20450;-88
2023/08/23 12:26:21;;;;;;;17.03;15.80;;;30.30;99.90;;;;;;4906543;29;20457;-86
2023/08/23 12:28:54;;;;;;;15.60;15.00;;;30.30;99.90;;;;;;4921123;29;20777;-87
2023/08/23 12:31:25;;;;;;;15.97;15.37;;;30.30;99.90;;;;;;4905320;29;20454;-85
2023/08/23 12:34:03;;;;;;;16.47;15.73;;;30.40;99.90;;;;;;4904342;29;20506;-86
2023/08/23 12:36:34;;;;;;;16.57;15.20;;;30.40;99.90;;;;;;4906044;29;20465;-86
2023/08/23 12:39:05;;;;;;;16.23;15.40;;;30.40;99.90;;;;;;4905250;29;20993;-90
2023/08/23 12:41:37;;;;;;;16.03;15.33;;;30.40;99.90;;;;;;4905611;29;20976;-85
2023/08/23 12:44:11;;;;;;;16.30;15.70;;;30.40;99.90;;;;;;4905626;29;20465;-87
2023/08/23 12:46:42;;;;;;;18.73;17.70;;;30.50;99.90;;;;;;4906170;29;20462;-86
2023/08/23 12:49:14;;;;;;;18.17;17.47;;;30.50;99.90;;;;;;4906324;29;20576;-88
2023/08/23 12:51:46;;;;;;;18.23;17.27;;;30.40;99.90;;;;;;4903051;29;20469;-86
2023/08/23 12:54:18;;;;;;;19.13;18.23;;;30.40;99.90;;;;;;4905703;29;20722;-86
2023/08/23 12:56:51;;;;;;;18.87;17.77;;;30.40;99.90;;;;;;4906755;29;20833;-87